createdAt,value
2019-01-30T00:00:57.163Z,8.73
2019-01-30T00:03:27.883Z,7.97
2019-01-30T00:05:58.740Z,8.77
2019-01-30T00:08:30.042Z,7.67
2019-01-30T00:11:00.664Z,8.73
2019-01-30T00:13:34.226Z,7.70
2019-01-30T00:16:11.025Z,8.87
2019-01-30T00:18:41.847Z,8.83
2019-01-30T00:21:12.593Z,7.37
2019-01-30T00:23:44.024Z,7.77
2019-01-30T00:26:16.567Z,8.20
2019-01-30T00:28:50.145Z,7.57
2019-01-30T00:31:22.593Z,7.27
2019-01-30T00:33:56.076Z,7.77
2019-01-30T00:36:36.094Z,7.40
2019-01-30T00:39:11.345Z,7.87
2019-01-30T00:41:42.313Z,7.20
2019-01-30T00:44:17.121Z,7.07
2019-01-30T00:46:48.593Z,8.27
2019-01-30T00:49:20.193Z,7.90
2019-01-30T00:51:51.471Z,7.73
2019-01-30T00:54:32.055Z,7.70
2019-01-30T00:56:57.565Z,8.43
2019-01-30T00:59:28.220Z,7.93
2019-01-30T01:01:58.908Z,8.37
2019-01-30T01:04:29.511Z,7.43
2019-01-30T01:07:00.835Z,7.30
2019-01-30T01:09:31.439Z,7.43
2019-01-30T01:12:02.454Z,6.80
2019-01-30T01:14:37.352Z,8.80
2019-01-30T01:17:07.977Z,7.37
2019-01-30T01:19:39.162Z,7.47
2019-01-30T01:22:09.904Z,7.73
2019-01-30T01:24:40.634Z,7.00
2019-01-30T01:27:11.706Z,7.37
2019-01-30T01:29:42.233Z,7.17
2019-01-30T01:32:12.869Z,7.17
2019-01-30T01:34:43.695Z,7.33
2019-01-30T01:37:15.047Z,7.27
2019-01-30T01:39:45.656Z,7.33
2019-01-30T01:42:16.297Z,7.33
2019-01-30T01:44:46.978Z,7.33
2019-01-30T01:47:18.264Z,6.87
2019-01-30T01:49:49.021Z,8.07
2019-01-30T01:52:19.556Z,6.47
2019-01-30T01:54:53.436Z,7.30
2019-01-30T01:57:23.993Z,6.90
2019-01-30T01:59:55.852Z,6.47
2019-01-30T02:02:26.455Z,7.27
2019-01-30T02:04:57.131Z,7.67
2019-01-30T02:07:28.275Z,8.07
2019-01-30T02:09:59.125Z,6.60
2019-01-30T02:12:29.750Z,6.90
2019-01-30T02:15:00.639Z,7.40
2019-01-30T02:17:32.825Z,7.23
2019-01-30T02:20:03.639Z,7.37
2019-01-30T02:22:34.237Z,7.40
2019-01-30T02:25:04.995Z,6.97
2019-01-30T02:27:36.181Z,7.73
2019-01-30T02:30:10.012Z,6.83
2019-01-30T02:32:40.956Z,6.77
2019-01-30T02:35:12.595Z,8.07
2019-01-30T02:37:43.516Z,7.93
2019-01-30T02:40:15.588Z,7.10
2019-01-30T02:42:46.718Z,7.10
2019-01-30T02:45:19.274Z,7.27
2019-01-30T02:47:51.152Z,6.73
2019-01-30T02:50:21.690Z,6.40
2019-01-30T02:52:52.847Z,6.37
2019-01-30T02:55:23.636Z,6.47
2019-01-30T02:57:54.442Z,7.03
2019-01-30T03:00:30.766Z,6.70
2019-01-30T03:03:01.536Z,7.07
2019-01-30T03:05:33.493Z,6.63
2019-01-30T03:08:04.880Z,6.27
2019-01-30T03:10:35.504Z,6.47
2019-01-30T03:13:06.311Z,7.20
2019-01-30T03:15:38.834Z,6.33
2019-01-30T03:18:09.605Z,7.37
2019-01-30T03:20:42.945Z,6.27
2019-01-30T03:23:13.575Z,6.17
2019-01-30T03:25:44.339Z,6.00
2019-01-30T03:31:56.947Z,7.13
2019-01-30T03:34:28.108Z,6.33
2019-01-30T03:36:59.130Z,7.00
2019-01-30T03:39:32.842Z,6.40
2019-01-30T03:42:04.294Z,6.53
2019-01-30T03:46:26.902Z,7.57
2019-01-30T03:48:57.240Z,6.43
2019-01-30T03:51:27.566Z,7.17
2019-01-30T03:53:57.968Z,6.57
2019-01-30T03:56:34.755Z,6.53
2019-01-30T03:59:04.931Z,6.43
2019-01-30T04:01:35.252Z,6.17
2019-01-30T04:04:05.430Z,6.90
2019-01-30T04:06:35.793Z,6.13
2019-01-30T04:09:07.745Z,6.67
2019-01-30T04:11:38.345Z,5.63
2019-01-30T04:14:08.574Z,5.87
2019-01-30T04:16:38.876Z,6.17
2019-01-30T04:19:09.108Z,5.97
2019-01-30T04:21:39.281Z,6.80
2019-01-30T04:24:09.754Z,6.63
2019-01-30T04:26:39.989Z,7.50
2019-01-30T04:29:10.530Z,6.00
2019-01-30T04:31:41.016Z,6.63
2019-01-30T04:34:30.208Z,5.93
2019-01-30T04:37:00.454Z,6.50
2019-01-30T04:39:30.795Z,5.67
2019-01-30T04:42:01.125Z,6.90
2019-01-30T04:44:31.497Z,6.43
2019-01-30T04:47:01.785Z,5.57
2019-01-30T04:49:36.899Z,5.60
2019-01-30T04:52:07.320Z,7.37
2019-01-30T04:54:37.559Z,5.87
2019-01-30T04:57:08.909Z,5.90
2019-01-30T04:59:39.502Z,5.43
2019-01-30T05:02:09.871Z,6.13
2019-01-30T05:04:42.577Z,5.80
2019-01-30T05:07:13.057Z,4.80
2019-01-30T05:09:43.413Z,4.87
2019-01-30T05:12:13.659Z,4.70
2019-01-30T05:14:43.945Z,5.77
2019-01-30T05:17:14.469Z,5.30
2019-01-30T05:19:44.994Z,5.57
2019-01-30T05:22:15.289Z,4.90
2019-01-30T05:24:45.541Z,5.60
2019-01-30T05:27:20.592Z,5.07
2019-01-30T05:29:51.858Z,4.07
2019-01-30T05:32:23.448Z,5.07
2019-01-30T05:34:56.117Z,5.50
2019-01-30T05:37:26.446Z,4.80
2019-01-30T05:39:56.745Z,5.37
2019-01-30T05:42:27.051Z,5.00
2019-01-30T05:45:08.034Z,5.27
2019-01-30T05:47:38.298Z,5.47
2019-01-30T05:50:08.649Z,6.23
2019-01-30T05:52:38.888Z,5.47
2019-01-30T05:55:09.470Z,5.17
2019-01-30T05:57:43.005Z,4.03
2019-01-30T06:00:25.336Z,4.17
2019-01-30T06:02:55.712Z,4.10
2019-01-30T06:05:25.993Z,3.77
2019-01-30T06:07:57.758Z,4.27
2019-01-30T06:10:27.935Z,4.57
2019-01-30T06:12:58.295Z,4.43
2019-01-30T06:15:30.097Z,4.77
2019-01-30T06:18:02.256Z,4.07
2019-01-30T06:20:32.806Z,4.67
2019-01-30T06:23:03.122Z,4.47
2019-01-30T06:25:34.153Z,4.70
2019-01-30T06:28:04.637Z,4.33
2019-01-30T06:30:35.093Z,4.33
2019-01-30T06:33:05.383Z,4.50
2019-01-30T06:35:35.632Z,3.73
2019-01-30T06:38:08.992Z,4.07
2019-01-30T06:40:39.771Z,5.20
2019-01-30T06:43:10.080Z,5.20
2019-01-30T06:45:40.383Z,4.77
2019-01-30T06:48:12.867Z,4.77
2019-01-30T06:50:43.150Z,4.70
2019-01-30T06:53:13.695Z,4.43
2019-01-30T06:55:44.137Z,5.00
2019-01-30T06:58:17.315Z,4.53
2019-01-30T07:00:47.832Z,4.87
2019-01-30T07:03:18.128Z,5.90
2019-01-30T07:05:49.461Z,5.37
2019-01-30T07:08:22.628Z,5.20
2019-01-30T07:10:53.081Z,5.60
2019-01-30T07:13:24.138Z,5.97
2019-01-30T07:15:57.106Z,4.93
2019-01-30T07:18:27.398Z,5.20
2019-01-30T07:20:57.857Z,5.17
2019-01-30T07:23:28.243Z,5.17
2019-01-30T07:25:58.653Z,5.27
2019-01-30T07:28:32.207Z,5.77
2019-01-30T07:31:12.050Z,5.50
2019-01-30T07:33:44.496Z,6.10
2019-01-30T07:36:15.093Z,5.33
2019-01-30T07:38:47.911Z,5.70
2019-01-30T07:41:18.206Z,5.73
2019-01-30T07:43:48.532Z,5.47
2019-01-30T07:46:19.171Z,5.27
2019-01-30T07:48:51.224Z,6.30
2019-01-30T07:51:21.982Z,6.70
2019-01-30T07:53:54.789Z,5.83
2019-01-30T07:56:24.237Z,5.03
2019-01-30T07:58:54.893Z,6.23
2019-01-30T08:01:25.063Z,5.43
2019-01-30T08:03:55.637Z,6.70
2019-01-30T08:06:26.085Z,6.53
2019-01-30T08:08:58.804Z,5.67
2019-01-30T08:11:29.118Z,5.83
2019-01-30T08:14:01.786Z,5.50
2019-01-30T08:16:32.183Z,6.63
2019-01-30T08:19:03.229Z,6.97
2019-01-30T08:21:33.865Z,5.63
2019-01-30T08:24:06.200Z,5.83
2019-01-30T08:26:38.494Z,6.47
2019-01-30T08:29:09.679Z,6.03
2019-01-30T08:31:41.609Z,5.47
2019-01-30T08:34:12.066Z,6.73
2019-01-30T08:36:43.833Z,5.83
2019-01-30T08:39:19.372Z,5.90
2019-01-30T08:41:49.863Z,6.10
2019-01-30T08:44:22.009Z,6.20
2019-01-30T08:46:52.822Z,6.30
2019-01-30T08:49:26.181Z,6.13
2019-01-30T08:51:59.148Z,6.27
2019-01-30T08:54:36.554Z,5.47
2019-01-30T08:57:07.213Z,6.10
2019-01-30T08:59:46.385Z,5.27
2019-01-30T09:02:12.587Z,6.27
2019-01-30T09:04:45.146Z,5.43
2019-01-30T09:07:17.077Z,6.10
2019-01-30T09:09:49.610Z,5.80
2019-01-30T09:12:20.161Z,6.60
2019-01-30T09:14:50.776Z,6.57
2019-01-30T09:17:21.266Z,5.67
2019-01-30T09:19:52.329Z,5.97
2019-01-30T09:22:23.093Z,6.83
2019-01-30T09:24:54.389Z,5.73
2019-01-30T09:27:32.876Z,6.90
2019-01-30T09:30:03.171Z,6.30
2019-01-30T09:32:34.104Z,6.03
2019-01-30T09:35:04.854Z,5.63
2019-01-30T09:37:35.383Z,5.60
2019-01-30T09:40:07.425Z,5.83
2019-01-30T09:42:40.910Z,5.50
2019-01-30T09:45:13.108Z,6.33
2019-01-30T09:47:45.341Z,6.23
2019-01-30T09:50:19.600Z,5.80
2019-01-30T09:52:50.060Z,6.13
2019-01-30T09:55:21.021Z,7.00
2019-01-30T09:57:53.873Z,7.20
2019-01-30T10:00:36.695Z,5.47
2019-01-30T10:03:07.063Z,6.30
2019-01-30T10:05:39.099Z,6.57
2019-01-30T10:08:12.938Z,7.17
2019-01-30T10:10:44.410Z,6.20
2019-01-30T10:13:15.291Z,5.93
2019-01-30T10:15:47.816Z,6.80
2019-01-30T10:18:19.388Z,6.37
2019-01-30T10:20:53.269Z,6.37
2019-01-30T10:23:26.129Z,7.23
2019-01-30T10:25:56.508Z,5.80
2019-01-30T10:28:26.954Z,6.10
2019-01-30T10:30:59.281Z,6.37
2019-01-30T10:33:30.335Z,7.00
2019-01-30T10:36:02.452Z,5.93
2019-01-30T10:38:32.819Z,6.87
2019-01-30T10:41:03.215Z,6.80
2019-01-30T10:43:35.318Z,7.20
2019-01-30T10:46:05.644Z,6.43
2019-01-30T10:48:36.610Z,6.87
2019-01-30T10:51:07.523Z,7.63
2019-01-30T10:53:42.234Z,6.33
2019-01-30T10:56:16.531Z,7.80
2019-01-30T10:58:46.503Z,6.63
2019-01-30T11:01:18.032Z,7.00
2019-01-30T11:03:57.469Z,7.03
2019-01-30T11:06:27.107Z,6.43
2019-01-30T11:08:57.613Z,7.27
2019-01-30T11:11:37.391Z,7.70
2019-01-30T11:14:08.090Z,6.73
2019-01-30T11:16:38.538Z,7.07
2019-01-30T11:19:08.916Z,7.03
2019-01-30T11:21:39.083Z,7.20
2019-01-30T11:24:10.432Z,7.60
2019-01-30T11:26:43.495Z,7.40
2019-01-30T11:29:15.593Z,6.77
2019-01-30T11:31:46.310Z,6.80
2019-01-30T11:34:16.621Z,6.57
2019-01-30T11:36:50.106Z,7.47
2019-01-30T11:39:20.834Z,6.53
2019-01-30T11:41:55.362Z,6.70
2019-01-30T11:44:27.923Z,7.90
2019-01-30T11:46:58.048Z,8.70
2019-01-30T11:49:28.282Z,7.83
2019-01-30T11:51:58.670Z,8.13
2019-01-30T11:54:38.683Z,8.50
2019-01-30T11:57:03.169Z,8.93
2019-01-30T11:59:35.072Z,8.83
2019-01-30T12:02:05.866Z,8.70
2019-01-30T12:04:40.488Z,9.57
2019-01-30T12:07:10.806Z,8.27
2019-01-30T12:09:41.284Z,8.07
2019-01-30T12:12:15.070Z,7.53
2019-01-30T12:14:45.717Z,9.63
2019-01-30T12:17:18.889Z,8.13
2019-01-30T12:19:49.192Z,7.53
2019-01-30T12:22:28.117Z,8.07
2019-01-30T12:25:00.196Z,7.83
2019-01-30T12:27:33.461Z,8.00
2019-01-30T12:30:10.607Z,7.53
2019-01-30T12:32:41.740Z,8.97
2019-01-30T12:35:12.150Z,7.90
2019-01-30T12:37:48.471Z,8.17
2019-01-30T12:40:22.874Z,8.37
2019-01-30T12:42:53.177Z,7.90
2019-01-30T12:45:30.505Z,7.33
2019-01-30T12:48:07.251Z,7.70
2019-01-30T12:50:50.589Z,7.47
2019-01-30T12:53:22.304Z,8.13
2019-01-30T12:56:10.205Z,7.43
2019-01-30T12:58:52.577Z,7.37
2019-01-30T13:01:23.982Z,8.10
2019-01-30T13:04:00.589Z,8.17
2019-01-30T13:06:31.041Z,7.90
2019-01-30T13:09:02.713Z,6.97
2019-01-30T13:11:36.434Z,8.00
2019-01-30T13:14:07.931Z,9.30
2019-01-30T13:16:38.182Z,7.40
2019-01-30T13:19:10.866Z,8.10
2019-01-30T13:21:42.314Z,7.60
2019-01-30T13:24:12.711Z,8.70
2019-01-30T13:26:45.899Z,8.07
2019-01-30T13:29:16.851Z,7.60
2019-01-30T13:31:47.145Z,7.93
2019-01-30T13:34:17.493Z,7.80
2019-01-30T13:36:48.163Z,8.23
2019-01-30T13:39:18.450Z,7.83
2019-01-30T13:41:53.842Z,8.33
2019-01-30T13:44:24.715Z,8.00
2019-01-30T13:46:55.040Z,8.67
2019-01-30T13:49:25.608Z,7.83
2019-01-30T13:51:56.405Z,7.93
2019-01-30T13:54:35.362Z,8.90
2019-01-30T13:57:07.663Z,8.60
2019-01-30T13:59:59.094Z,7.40
2019-01-30T14:02:33.610Z,7.57
2019-01-30T14:05:09.875Z,7.67
2019-01-30T14:07:41.859Z,6.97
2019-01-30T14:10:12.270Z,7.00
2019-01-30T14:12:44.413Z,6.73
2019-01-30T14:15:17.066Z,6.77
2019-01-30T14:17:49.173Z,7.63
2019-01-30T14:20:19.653Z,7.13
2019-01-30T14:22:50.720Z,7.17
2019-01-30T14:25:21.090Z,6.93
2019-01-30T14:27:54.108Z,7.17
2019-01-30T14:30:34.676Z,7.50
2019-01-30T14:33:05.084Z,8.77
2019-01-30T14:35:40.094Z,7.67
2019-01-30T14:38:12.251Z,8.03
2019-01-30T14:40:42.753Z,8.70
2019-01-30T14:43:16.343Z,8.63
2019-01-30T14:45:49.858Z,7.90
2019-01-30T14:48:29.200Z,8.13
2019-01-30T14:51:00.730Z,7.83
2019-01-30T14:53:32.624Z,8.10
2019-01-30T14:56:03.611Z,7.93
2019-01-30T14:58:37.093Z,9.03
2019-01-30T15:01:07.681Z,9.17
2019-01-30T15:03:38.769Z,8.50
2019-01-30T15:06:10.564Z,8.67
2019-01-30T15:08:42.252Z,9.53
2019-01-30T15:11:12.662Z,8.53
2019-01-30T15:13:43.249Z,7.93
2019-01-30T15:16:15.096Z,8.50
2019-01-30T15:18:45.669Z,8.63
2019-01-30T15:21:16.793Z,8.47
2019-01-30T15:23:48.097Z,8.97
2019-01-30T15:26:19.096Z,9.97
2019-01-30T15:28:50.110Z,8.27
2019-01-30T15:31:20.877Z,7.60
2019-01-30T15:33:54.914Z,8.53
2019-01-30T15:36:29.938Z,8.77
2019-01-30T15:39:00.921Z,9.17
2019-01-30T15:41:33.260Z,9.20
2019-01-30T15:44:05.940Z,9.10
2019-01-30T15:46:36.715Z,9.00
2019-01-30T15:49:10.272Z,8.53
2019-01-30T15:51:40.909Z,9.00
2019-01-30T15:54:14.203Z,9.13
2019-01-30T15:56:46.932Z,9.20
2019-01-30T15:59:18.953Z,8.87
2019-01-30T16:01:51.158Z,8.63
2019-01-30T16:04:21.485Z,8.53
2019-01-30T16:06:51.799Z,8.80
2019-01-30T16:09:23.467Z,9.27
2019-01-30T16:12:01.805Z,8.73
2019-01-30T16:14:32.201Z,10.30
2019-01-30T16:17:06.610Z,10.20
2019-01-30T16:19:37.252Z,9.77
2019-01-30T16:22:10.077Z,9.73
2019-01-30T16:24:41.064Z,9.07
2019-01-30T16:27:11.488Z,9.23
2019-01-30T16:29:58.737Z,10.07
2019-01-30T16:32:32.241Z,10.57
2019-01-30T16:35:03.034Z,9.50
2019-01-30T16:37:36.825Z,10.10
2019-01-30T16:40:08.792Z,9.13
2019-01-30T16:42:41.102Z,9.83
2019-01-30T16:45:14.225Z,9.50
2019-01-30T16:47:44.875Z,9.13
2019-01-30T16:50:19.555Z,9.10
2019-01-30T16:52:51.480Z,10.33
2019-01-30T16:55:26.677Z,10.40
2019-01-30T16:58:00.026Z,9.77
2019-01-30T17:00:33.347Z,9.47
2019-01-30T17:03:06.839Z,10.63
2019-01-30T17:05:39.046Z,8.90
2019-01-30T17:08:10.742Z,10.30
2019-01-30T17:10:44.246Z,9.33
2019-01-30T17:13:14.605Z,9.50
2019-01-30T17:15:49.806Z,10.63
2019-01-30T17:18:24.249Z,9.67
2019-01-30T17:20:56.202Z,10.23
2019-01-30T17:23:29.083Z,9.77
2019-01-30T17:25:59.572Z,9.73
2019-01-30T17:28:34.115Z,10.43
2019-01-30T17:31:21.500Z,9.53
2019-01-30T17:33:54.991Z,8.63
2019-01-30T17:36:25.587Z,8.90
2019-01-30T17:38:58.052Z,8.77
2019-01-30T17:41:31.156Z,9.60
2019-01-30T17:44:02.297Z,9.53
2019-01-30T17:46:38.290Z,9.67
2019-01-30T17:49:19.182Z,8.97
2019-01-30T17:51:58.943Z,8.93
2019-01-30T17:54:31.163Z,9.70
2019-01-30T17:57:03.593Z,9.70
2019-01-30T17:59:33.936Z,9.63
2019-01-30T18:02:07.653Z,10.27
2019-01-30T18:04:38.386Z,10.53
2019-01-30T18:07:09.084Z,10.53
2019-01-30T18:09:41.438Z,10.00
2019-01-30T18:12:14.725Z,9.80
2019-01-30T18:14:46.331Z,10.77
2019-01-30T18:17:19.404Z,10.17
2019-01-30T18:19:53.722Z,9.73
2019-01-30T18:22:27.099Z,10.87
2019-01-30T18:25:01.678Z,11.00
2019-01-30T18:27:32.013Z,11.60
2019-01-30T18:30:02.315Z,10.93
2019-01-30T18:32:45.131Z,10.63
2019-01-30T18:35:17.651Z,9.97
2019-01-30T18:37:48.094Z,11.10
2019-01-30T18:40:20.345Z,9.50
2019-01-30T18:42:55.402Z,10.87
2019-01-30T18:45:27.098Z,11.13
2019-01-30T18:48:00.085Z,10.40
2019-01-30T18:50:31.264Z,10.90
2019-01-30T18:53:02.047Z,10.80
2019-01-30T18:55:33.523Z,10.47
2019-01-30T18:58:07.091Z,10.87
2019-01-30T19:00:41.458Z,9.87
2019-01-30T19:03:14.442Z,10.43
2019-01-30T19:05:44.958Z,11.23
2019-01-30T19:08:16.176Z,10.53
2019-01-30T19:10:52.410Z,10.80
2019-01-30T19:13:22.812Z,10.87
2019-01-30T19:16:01.149Z,10.60
2019-01-30T19:18:34.981Z,11.97
2019-01-30T19:21:08.434Z,11.13
2019-01-30T19:23:55.841Z,11.03
2019-01-30T19:26:32.030Z,10.77
2019-01-30T19:29:05.621Z,11.97
2019-01-30T19:31:50.155Z,13.23
2019-01-30T19:34:24.833Z,11.73
2019-01-30T19:37:03.253Z,11.53
2019-01-30T19:39:30.318Z,11.50
2019-01-30T19:42:05.095Z,11.10
2019-01-30T19:44:37.087Z,9.97
2019-01-30T19:47:14.378Z,10.73
2019-01-30T19:49:45.612Z,11.13
2019-01-30T19:52:19.095Z,10.23
2019-01-30T19:54:49.396Z,9.30
2019-01-30T19:57:20.238Z,9.20
2019-01-30T19:59:51.736Z,10.87
2019-01-30T20:02:28.883Z,9.37
2019-01-30T20:05:01.725Z,10.03
2019-01-30T20:07:35.741Z,9.47
2019-01-30T20:10:17.980Z,8.50
2019-01-30T20:12:49.903Z,9.33
2019-01-30T20:15:20.337Z,9.00
2019-01-30T20:17:56.778Z,8.80
2019-01-30T20:20:27.453Z,9.07
2019-01-30T20:22:58.281Z,9.37
2019-01-30T20:25:32.701Z,8.80
2019-01-30T20:28:03.253Z,10.03
2019-01-30T20:30:34.043Z,8.73
2019-01-30T20:33:13.700Z,7.73
2019-01-30T20:35:48.428Z,6.40
2019-01-30T20:38:43.781Z,5.73
2019-01-30T20:41:14.146Z,5.00
2019-01-30T20:43:47.718Z,5.17
2019-01-30T20:46:22.529Z,5.73
2019-01-30T20:48:56.004Z,5.70
2019-01-30T20:51:26.906Z,6.17
2019-01-30T20:54:00.637Z,5.57
2019-01-30T20:56:31.643Z,5.90
2019-01-30T20:59:02.192Z,5.07
2019-01-30T21:01:36.088Z,4.87
2019-01-30T21:04:07.116Z,5.90
2019-01-30T21:06:37.787Z,6.20
2019-01-30T21:09:10.227Z,6.00
2019-01-30T21:11:44.557Z,5.53
2019-01-30T21:14:18.326Z,5.17
2019-01-30T21:16:56.085Z,4.33
2019-01-30T21:19:27.838Z,4.93
2019-01-30T21:22:06.648Z,4.17
2019-01-30T21:24:41.780Z,4.40
2019-01-30T21:27:14.536Z,4.30
2019-01-30T21:29:46.333Z,3.93
2019-01-30T21:32:25.849Z,3.27
2019-01-30T21:34:56.257Z,3.30
2019-01-30T21:37:27.194Z,2.97
2019-01-30T21:39:57.353Z,3.13
2019-01-30T21:42:28.247Z,2.90
2019-01-30T21:45:00.719Z,2.50
2019-01-30T21:47:31.131Z,2.47
2019-01-30T21:50:03.134Z,2.60
2019-01-30T21:52:39.414Z,2.50
2019-01-30T21:55:12.417Z,2.30
2019-01-30T21:57:51.417Z,2.13
2019-01-30T22:00:31.124Z,2.50
2019-01-30T22:03:04.198Z,2.10
2019-01-30T22:05:36.171Z,2.73
2019-01-30T22:08:07.070Z,2.30
2019-01-30T22:10:41.248Z,2.50
2019-01-30T22:13:14.728Z,2.30
2019-01-30T22:15:51.539Z,2.80
2019-01-30T22:18:22.171Z,3.30
2019-01-30T22:20:55.066Z,2.33
2019-01-30T22:23:29.078Z,3.13
2019-01-30T22:25:59.352Z,2.67
2019-01-30T22:28:29.731Z,3.23
2019-01-30T22:31:00.089Z,2.80
2019-01-30T22:33:35.262Z,3.37
2019-01-30T22:36:09.834Z,3.20
2019-01-30T22:38:40.070Z,2.60
2019-01-30T22:41:11.977Z,3.33
2019-01-30T22:43:42.684Z,2.40
2019-01-30T22:46:14.692Z,2.77
2019-01-30T22:48:47.991Z,2.47
2019-01-30T22:51:22.103Z,3.10
2019-01-30T22:53:57.193Z,2.93
2019-01-30T22:56:27.363Z,2.83
2019-01-30T22:58:57.716Z,2.53
2019-01-30T23:01:53.024Z,3.10
2019-01-30T23:04:54.662Z,3.10
2019-01-30T23:07:58.015Z,3.47
2019-01-30T23:11:08.226Z,3.00
2019-01-30T23:13:57.576Z,3.13
2019-01-30T23:17:18.168Z,3.23
2019-01-30T23:20:01.250Z,2.60
2019-01-30T23:23:09.746Z,2.60
2019-01-30T23:26:25.111Z,3.00
2019-01-30T23:29:57.737Z,3.03
2019-01-30T23:33:06.003Z,3.43
2019-01-30T23:36:13.378Z,2.30
2019-01-30T23:39:19.657Z,3.10
2019-01-30T23:42:35.360Z,2.60
2019-01-30T23:45:52.724Z,3.40
2019-01-30T23:49:14.457Z,3.00
2019-01-30T23:52:25.775Z,2.70
2019-01-30T23:55:42.102Z,3.53
2019-01-30T23:58:48.918Z,2.60
